createdAt,value
2017-09-25T00:00:05.825Z,63.60
2017-09-25T00:02:33.433Z,63.60
2017-09-25T00:05:01.767Z,64.00
2017-09-25T00:07:29.381Z,63.40
2017-09-25T00:09:57.724Z,65.00
2017-09-25T00:12:25.300Z,65.00
2017-09-25T00:14:52.907Z,64.30
2017-09-25T00:17:20.483Z,63.70
2017-09-25T00:19:48.046Z,63.30
2017-09-25T00:22:15.679Z,63.60
2017-09-25T00:24:43.253Z,63.60
2017-09-25T00:27:10.826Z,63.60
2017-09-25T00:29:38.448Z,63.90
2017-09-25T00:32:06.073Z,64.10
2017-09-25T00:34:33.633Z,65.50
2017-09-25T00:37:01.245Z,66.10
2017-09-25T00:39:28.811Z,66.90
2017-09-25T00:41:56.418Z,68.70
2017-09-25T00:44:23.998Z,66.70
2017-09-25T00:46:51.609Z,66.50
2017-09-25T00:49:19.199Z,65.80
2017-09-25T00:51:46.821Z,65.60
2017-09-25T00:54:14.430Z,64.80
2017-09-25T00:56:42.005Z,64.30
2017-09-25T00:59:21.540Z,65.50
2017-09-25T01:02:01.043Z,65.00
2017-09-25T01:04:40.265Z,64.80
2017-09-25T01:07:07.913Z,64.30
2017-09-25T01:09:35.479Z,64.20
2017-09-25T01:12:03.047Z,64.50
2017-09-25T01:14:30.662Z,65.20
2017-09-25T01:16:58.278Z,64.80
2017-09-25T01:19:25.850Z,65.30
2017-09-25T01:21:53.426Z,65.20
2017-09-25T01:24:21.041Z,65.40
2017-09-25T01:26:48.611Z,65.20
2017-09-25T01:29:16.182Z,64.90
2017-09-25T01:31:43.788Z,66.00
2017-09-25T01:34:11.399Z,65.80
2017-09-25T01:36:38.978Z,66.50
2017-09-25T01:39:06.609Z,65.70
2017-09-25T01:41:34.206Z,66.60
2017-09-25T01:44:01.766Z,66.70
2017-09-25T01:46:29.387Z,65.40
2017-09-25T01:48:57.710Z,66.80
2017-09-25T01:51:25.339Z,66.80
2017-09-25T01:53:52.902Z,66.50
2017-09-25T01:56:20.471Z,66.30
2017-09-25T01:58:48.084Z,65.50
2017-09-25T02:01:15.673Z,66.40
2017-09-25T02:03:43.274Z,65.70
2017-09-25T02:06:10.845Z,66.10
2017-09-25T02:08:38.449Z,65.60
2017-09-25T02:11:06.038Z,65.40
2017-09-25T02:13:33.608Z,65.60
2017-09-25T02:16:01.211Z,66.50
2017-09-25T02:18:28.851Z,65.50
2017-09-25T02:20:56.402Z,64.60
2017-09-25T02:23:24.002Z,65.40
2017-09-25T02:25:52.371Z,66.00
2017-09-25T02:28:19.931Z,66.60
2017-09-25T02:30:47.558Z,65.10
2017-09-25T02:33:15.123Z,65.70
2017-09-25T02:35:42.710Z,65.20
2017-09-25T02:38:10.318Z,66.40
2017-09-25T02:40:37.927Z,65.50
2017-09-25T02:43:05.551Z,64.40
2017-09-25T02:45:33.126Z,63.90
2017-09-25T02:48:00.723Z,64.10
2017-09-25T02:50:28.346Z,64.70
2017-09-25T02:52:55.921Z,65.30
2017-09-25T02:55:23.491Z,65.80
2017-09-25T02:57:51.104Z,66.60
2017-09-25T03:00:18.721Z,65.60
2017-09-25T03:02:46.308Z,64.70
2017-09-25T03:05:14.656Z,63.60
2017-09-25T03:07:42.272Z,63.60
2017-09-25T03:10:09.836Z,64.10
2017-09-25T03:12:37.459Z,65.20
2017-09-25T03:15:05.022Z,64.80
2017-09-25T03:17:32.599Z,66.30
2017-09-25T03:20:00.965Z,66.10
2017-09-25T03:22:28.535Z,66.10
2017-09-25T03:24:56.904Z,64.30
2017-09-25T03:27:24.575Z,64.30
2017-09-25T03:29:52.906Z,64.20
2017-09-25T03:32:20.470Z,64.10
2017-09-25T03:34:48.083Z,63.60
2017-09-25T03:37:15.700Z,63.50
2017-09-25T03:39:43.285Z,64.40
2017-09-25T03:42:10.862Z,66.00
2017-09-25T03:44:39.306Z,66.50
2017-09-25T03:47:06.865Z,66.50
2017-09-25T03:49:34.424Z,65.40
2017-09-25T03:52:02.042Z,64.30
2017-09-25T03:54:29.647Z,63.90
2017-09-25T03:56:57.249Z,64.00
2017-09-25T03:59:25.582Z,63.00
2017-09-25T04:01:53.181Z,63.00
2017-09-25T04:04:21.527Z,64.20
2017-09-25T04:06:49.139Z,64.70
2017-09-25T04:09:17.471Z,63.50
2017-09-25T04:11:45.037Z,63.50
2017-09-25T04:14:12.647Z,63.50
2017-09-25T04:16:40.220Z,63.60
2017-09-25T04:19:07.832Z,63.40
2017-09-25T04:21:35.470Z,63.00
2017-09-25T04:24:03.066Z,62.80
2017-09-25T04:26:31.402Z,62.80
2017-09-25T04:28:59.313Z,62.70
2017-09-25T04:31:27.712Z,64.80
2017-09-25T04:33:55.295Z,64.80
2017-09-25T04:36:22.875Z,65.00
2017-09-25T04:38:50.484Z,64.90
2017-09-25T04:41:18.827Z,64.80
2017-09-25T04:43:46.440Z,64.80
2017-09-25T04:46:14.801Z,64.00
2017-09-25T04:48:43.206Z,64.90
2017-09-25T04:51:10.811Z,64.90
2017-09-25T04:53:38.393Z,64.30
2017-09-25T04:56:05.993Z,63.70
2017-09-25T04:58:33.582Z,64.20
2017-09-25T05:01:02.020Z,63.60
2017-09-25T05:03:30.387Z,63.10
2017-09-25T05:05:58.754Z,63.10
2017-09-25T05:08:26.333Z,63.10
2017-09-25T05:10:54.701Z,63.00
2017-09-25T05:13:23.048Z,63.80
2017-09-25T05:15:50.696Z,63.80
2017-09-25T05:18:18.266Z,63.40
2017-09-25T05:20:45.826Z,63.50
2017-09-25T05:23:13.540Z,63.80
2017-09-25T05:25:41.883Z,64.10
2017-09-25T05:28:09.455Z,64.00
2017-09-25T05:30:37.117Z,64.30
2017-09-25T05:33:04.675Z,65.50
2017-09-25T05:35:32.298Z,66.40
2017-09-25T05:38:00.630Z,64.30
2017-09-25T05:40:28.992Z,64.30
2017-09-25T05:42:56.598Z,64.10
2017-09-25T05:45:24.186Z,64.10
2017-09-25T05:47:51.746Z,64.10
2017-09-25T05:50:19.350Z,65.00
2017-09-25T05:52:46.954Z,65.00
2017-09-25T05:55:14.631Z,64.80
2017-09-25T05:57:43.088Z,64.60
2017-09-25T06:00:10.745Z,64.40
2017-09-25T06:02:39.686Z,64.70
2017-09-25T06:05:08.114Z,64.40
2017-09-25T06:07:36.462Z,64.20
2017-09-25T06:10:04.074Z,64.20
2017-09-25T06:12:31.678Z,64.40
2017-09-25T06:14:59.246Z,64.20
2017-09-25T06:17:26.845Z,64.20
2017-09-25T06:19:55.171Z,66.90
2017-09-25T06:22:22.761Z,66.90
2017-09-25T06:24:51.187Z,68.20
2017-09-25T06:27:18.770Z,68.20
2017-09-25T06:29:46.339Z,68.30
2017-09-25T06:32:13.955Z,67.00
2017-09-25T06:34:41.537Z,66.10
2017-09-25T06:37:09.185Z,65.90
2017-09-25T06:39:38.143Z,66.90
2017-09-25T06:42:06.611Z,67.70
2017-09-25T06:44:34.257Z,67.60
2017-09-25T06:47:01.825Z,70.00
2017-09-25T06:49:29.443Z,70.80
2017-09-25T06:51:57.031Z,69.20
2017-09-25T06:54:24.626Z,67.70
2017-09-25T06:56:52.218Z,67.80
2017-09-25T06:59:19.834Z,68.50
2017-09-25T07:01:47.454Z,68.10
2017-09-25T07:04:15.132Z,66.30
2017-09-25T07:06:42.712Z,67.70
2017-09-25T07:09:10.337Z,68.90
2017-09-25T07:11:37.890Z,67.50
2017-09-25T07:14:05.648Z,66.70
2017-09-25T07:16:33.368Z,66.40
2017-09-25T07:19:01.335Z,66.50
2017-09-25T07:21:29.845Z,66.40
2017-09-25T07:23:58.204Z,66.10
2017-09-25T07:26:25.831Z,66.10
2017-09-25T07:28:53.418Z,65.80
2017-09-25T07:31:20.997Z,65.90
2017-09-25T07:33:48.623Z,66.10
2017-09-25T07:36:16.206Z,67.00
2017-09-25T07:38:43.984Z,66.20
2017-09-25T07:41:11.554Z,66.30
2017-09-25T07:43:39.153Z,66.10
2017-09-25T07:46:06.769Z,66.40
2017-09-25T07:48:34.352Z,65.80
2017-09-25T07:51:02.744Z,65.70
2017-09-25T07:53:30.706Z,65.70
2017-09-25T07:55:58.323Z,66.00
2017-09-25T07:58:25.938Z,67.60
2017-09-25T08:00:53.601Z,67.60
2017-09-25T08:03:21.274Z,66.70
2017-09-25T08:05:48.912Z,66.80
2017-09-25T08:08:16.517Z,66.40
2017-09-25T08:10:44.087Z,67.00
2017-09-25T08:13:11.691Z,66.60
2017-09-25T08:15:40.082Z,67.00
2017-09-25T08:18:08.425Z,66.30
2017-09-25T08:20:36.005Z,66.20
2017-09-25T08:23:04.415Z,66.40
2017-09-25T08:25:32.025Z,66.40
2017-09-25T08:27:59.666Z,66.10
2017-09-25T08:30:27.274Z,64.70
2017-09-25T08:32:54.923Z,64.30
2017-09-25T08:35:22.550Z,62.90
2017-09-25T08:37:50.142Z,62.70
2017-09-25T08:40:18.566Z,59.20
2017-09-25T08:42:46.135Z,59.10
2017-09-25T08:45:13.735Z,60.00
2017-09-25T08:47:41.313Z,59.20
2017-09-25T08:50:09.746Z,57.80
2017-09-25T08:52:37.314Z,57.80
2017-09-25T08:55:05.663Z,58.10
2017-09-25T08:57:34.482Z,58.50
2017-09-25T09:00:03.812Z,57.60
2017-09-25T09:02:33.021Z,54.70
2017-09-25T09:05:01.273Z,54.20
2017-09-25T09:07:29.673Z,53.70
2017-09-25T09:09:57.278Z,53.60
2017-09-25T09:12:24.929Z,52.90
2017-09-25T09:15:03.923Z,52.20
2017-09-25T09:17:32.351Z,51.30
2017-09-25T09:19:59.987Z,51.10
2017-09-25T09:22:29.434Z,49.70
2017-09-25T09:24:57.067Z,49.60
2017-09-25T09:27:25.418Z,48.70
2017-09-25T09:29:52.973Z,48.70
2017-09-25T09:32:20.712Z,44.40
2017-09-25T09:34:48.287Z,45.10
2017-09-25T09:37:17.735Z,43.60
2017-09-25T09:39:49.102Z,46.70
2017-09-25T09:42:18.106Z,47.00
2017-09-25T09:44:45.782Z,47.00
2017-09-25T09:47:24.894Z,44.60
2017-09-25T09:49:52.481Z,45.30
2017-09-25T09:52:20.190Z,41.40
2017-09-25T09:54:47.881Z,40.00
2017-09-25T09:57:18.638Z,43.40
2017-09-25T09:59:46.299Z,41.00
2017-09-25T10:02:13.909Z,41.10
2017-09-25T10:04:41.483Z,38.40
2017-09-25T10:07:09.894Z,41.40
2017-09-25T10:09:37.463Z,41.30
2017-09-25T10:12:05.023Z,41.20
2017-09-25T10:14:32.639Z,42.10
2017-09-25T10:17:00.272Z,42.50
2017-09-25T10:19:27.834Z,40.50
2017-09-25T10:21:55.499Z,38.60
2017-09-25T10:24:27.099Z,37.70
2017-09-25T10:26:54.724Z,38.10
2017-09-25T10:29:22.304Z,38.70
2017-09-25T10:31:50.657Z,39.10
2017-09-25T10:34:18.327Z,39.00
2017-09-25T10:36:45.905Z,40.50
2017-09-25T10:39:14.358Z,36.70
2017-09-25T10:41:41.986Z,36.70
2017-09-25T10:44:09.581Z,35.30
2017-09-25T10:46:37.189Z,32.20
2017-09-25T10:49:04.800Z,33.00
2017-09-25T10:51:32.413Z,31.20
2017-09-25T10:54:00.071Z,31.10
2017-09-25T10:56:28.503Z,34.70
2017-09-25T10:58:56.125Z,34.70
2017-09-25T11:01:23.797Z,35.70
2017-09-25T11:03:51.439Z,34.70
2017-09-25T11:06:19.711Z,35.30
2017-09-25T11:08:48.354Z,38.40
2017-09-25T11:11:16.084Z,38.40
2017-09-25T11:13:43.699Z,38.90
2017-09-25T11:16:11.262Z,38.80
2017-09-25T11:18:38.850Z,40.00
2017-09-25T11:21:07.237Z,42.00
2017-09-25T11:23:34.867Z,42.00
2017-09-25T11:26:02.435Z,41.40
2017-09-25T11:28:30.083Z,43.00
2017-09-25T11:30:57.673Z,41.60
2017-09-25T11:33:26.000Z,39.20
2017-09-25T11:35:53.722Z,39.20
2017-09-25T11:38:21.633Z,39.40
2017-09-25T11:40:49.239Z,40.10
2017-09-25T11:43:18.431Z,35.00
2017-09-25T11:45:46.769Z,34.20
2017-09-25T11:48:14.433Z,34.20
2017-09-25T11:50:42.033Z,32.10
2017-09-25T11:53:09.592Z,31.20
2017-09-25T11:55:37.224Z,30.80
2017-09-25T11:58:04.833Z,29.20
2017-09-25T12:00:33.274Z,29.90
2017-09-25T12:03:00.913Z,29.80
2017-09-25T12:05:28.547Z,30.00
2017-09-25T12:07:56.115Z,29.10
2017-09-25T12:10:23.709Z,30.00
2017-09-25T12:12:51.321Z,28.50
2017-09-25T12:15:19.655Z,29.70
2017-09-25T12:17:47.259Z,29.60
2017-09-25T12:20:15.602Z,28.70
2017-09-25T12:22:43.286Z,28.70
2017-09-25T12:25:10.890Z,28.50
2017-09-25T12:27:38.538Z,27.70
2017-09-25T12:30:06.110Z,28.70
2017-09-25T12:32:33.719Z,27.10
2017-09-25T12:35:01.334Z,27.30
2017-09-25T12:37:28.942Z,27.80
2017-09-25T12:39:56.549Z,27.40
2017-09-25T12:42:24.197Z,28.20
2017-09-25T12:44:51.874Z,28.20
2017-09-25T12:47:19.487Z,26.70
2017-09-25T12:49:47.102Z,26.70
2017-09-25T12:52:14.717Z,28.30
2017-09-25T12:54:42.368Z,28.30
2017-09-25T12:57:09.952Z,29.30
2017-09-25T12:59:37.617Z,28.20
2017-09-25T13:02:05.985Z,28.70
2017-09-25T13:04:33.625Z,28.60
2017-09-25T13:07:01.274Z,28.10
2017-09-25T13:09:28.868Z,28.20
2017-09-25T13:11:56.480Z,29.60
2017-09-25T13:14:24.118Z,31.90
2017-09-25T13:16:52.528Z,32.60
2017-09-25T13:19:20.102Z,32.60
2017-09-25T13:21:47.678Z,34.80
2017-09-25T13:24:15.303Z,35.90
2017-09-25T13:26:43.038Z,35.90
2017-09-25T13:29:11.472Z,33.40
2017-09-25T13:31:39.058Z,33.30
2017-09-25T13:34:08.450Z,32.50
2017-09-25T13:36:36.272Z,31.90
2017-09-25T13:39:04.100Z,31.80
2017-09-25T13:41:31.728Z,33.30
2017-09-25T13:43:59.295Z,32.50
2017-09-25T13:46:26.862Z,32.50
2017-09-25T13:48:54.470Z,33.90
2017-09-25T13:51:22.811Z,36.00
2017-09-25T13:53:50.459Z,36.00
2017-09-25T13:56:18.033Z,36.30
2017-09-25T14:03:51.560Z,34.90
2017-09-25T14:06:19.188Z,36.00
2017-09-25T14:08:46.763Z,34.80
2017-09-25T14:11:14.357Z,34.40
2017-09-25T14:13:41.972Z,33.20
2017-09-25T14:16:09.569Z,34.70
2017-09-25T14:18:37.207Z,34.00
2017-09-25T14:21:04.840Z,34.20
2017-09-25T14:23:32.443Z,33.70
2017-09-25T14:26:00.064Z,35.40
2017-09-25T14:28:27.665Z,35.70
2017-09-25T14:30:55.331Z,35.90
2017-09-25T14:33:27.010Z,36.00
2017-09-25T14:35:54.573Z,36.60
2017-09-25T14:38:22.758Z,36.00
2017-09-25T14:40:50.337Z,35.40
2017-09-25T14:43:17.941Z,35.80
2017-09-25T14:45:45.553Z,35.80
2017-09-25T14:48:13.277Z,35.10
2017-09-25T14:50:40.903Z,36.70
2017-09-25T14:53:08.528Z,36.50
2017-09-25T14:55:36.091Z,36.00
2017-09-25T14:58:03.721Z,34.90
2017-09-25T15:00:31.334Z,35.00
2017-09-25T15:02:59.283Z,35.10
2017-09-25T15:05:27.667Z,37.40
2017-09-25T15:07:56.042Z,36.30
2017-09-25T15:10:23.739Z,36.20
2017-09-25T15:12:51.297Z,34.90
2017-09-25T15:15:18.907Z,35.40
2017-09-25T15:17:46.522Z,35.20
2017-09-25T15:20:14.148Z,36.10
2017-09-25T15:22:41.780Z,36.70
2017-09-25T15:25:11.043Z,36.50
2017-09-25T15:27:39.378Z,37.00
2017-09-25T15:30:18.747Z,37.00
2017-09-25T15:32:47.200Z,37.40
2017-09-25T15:35:22.271Z,37.40
2017-09-25T15:37:50.661Z,37.60
2017-09-25T15:40:18.305Z,37.60
2017-09-25T15:42:46.654Z,39.00
2017-09-25T15:45:14.382Z,39.00
2017-09-25T15:47:42.039Z,38.10
2017-09-25T15:50:09.661Z,37.40
2017-09-25T15:52:37.287Z,37.40
2017-09-25T15:55:04.926Z,37.00
2017-09-25T15:57:32.512Z,37.70
2017-09-25T16:00:00.142Z,38.00
2017-09-25T16:02:27.760Z,38.60
2017-09-25T16:04:55.431Z,38.40
2017-09-25T16:07:23.028Z,38.60
2017-09-25T16:09:50.614Z,38.90
2017-09-25T16:12:18.259Z,38.50
2017-09-25T16:14:45.917Z,39.30
2017-09-25T16:17:13.534Z,38.90
2017-09-25T16:19:41.920Z,39.10
2017-09-25T16:22:09.496Z,39.00
2017-09-25T16:24:37.103Z,40.00
2017-09-25T16:27:04.716Z,39.60
2017-09-25T16:29:32.465Z,39.70
2017-09-25T16:32:00.109Z,40.00
2017-09-25T16:34:27.765Z,40.20
2017-09-25T16:36:55.393Z,41.00
2017-09-25T16:39:23.002Z,41.70
2017-09-25T16:41:50.641Z,41.40
2017-09-25T16:44:18.976Z,41.60
2017-09-25T16:46:46.574Z,41.60
2017-09-25T16:49:14.251Z,41.40
2017-09-25T16:51:41.851Z,41.50
2017-09-25T16:54:09.476Z,41.70
2017-09-25T16:56:37.087Z,42.00
2017-09-25T16:59:04.671Z,42.50
2017-09-25T17:01:32.302Z,42.90
2017-09-25T17:03:59.879Z,42.50
2017-09-25T17:06:28.227Z,42.90
2017-09-25T17:08:56.680Z,42.80
2017-09-25T17:11:25.033Z,43.10
2017-09-25T17:13:52.662Z,43.10
2017-09-25T17:16:21.104Z,44.00
2017-09-25T17:18:48.695Z,43.40
2017-09-25T17:21:16.350Z,44.00
2017-09-25T17:23:43.923Z,44.10
2017-09-25T17:26:11.523Z,43.90
2017-09-25T17:28:39.224Z,44.30
2017-09-25T17:31:06.791Z,44.50
2017-09-25T17:33:34.415Z,44.30
2017-09-25T17:36:02.031Z,44.20
2017-09-25T17:38:30.443Z,44.30
2017-09-25T17:40:58.031Z,44.00
2017-09-25T17:43:25.605Z,44.00
2017-09-25T17:45:53.221Z,44.10
2017-09-25T17:48:20.835Z,44.10
2017-09-25T17:50:48.480Z,44.20
2017-09-25T17:53:16.101Z,44.20
2017-09-25T17:55:44.500Z,44.90
2017-09-25T17:58:12.080Z,44.90
2017-09-25T18:00:39.696Z,45.10
2017-09-25T18:03:08.089Z,45.50
2017-09-25T18:05:35.725Z,45.50
2017-09-25T18:08:03.303Z,46.00
2017-09-25T18:10:31.725Z,46.90
2017-09-25T18:12:59.342Z,46.80
2017-09-25T18:15:27.695Z,45.30
2017-09-25T18:17:55.316Z,45.20
2017-09-25T18:20:22.904Z,46.70
2017-09-25T18:22:50.519Z,47.50
2017-09-25T18:25:18.865Z,45.80
2017-09-25T18:27:46.474Z,45.80
2017-09-25T18:30:14.084Z,45.50
2017-09-25T18:32:41.660Z,49.10
2017-09-25T18:35:09.288Z,50.50
2017-09-25T18:37:36.939Z,51.20
2017-09-25T18:40:04.584Z,51.80
2017-09-25T18:42:32.243Z,52.50
2017-09-25T18:44:59.813Z,52.60
2017-09-25T18:47:27.434Z,53.00
2017-09-25T18:49:55.003Z,52.70
2017-09-25T18:52:23.338Z,54.50
2017-09-25T18:54:50.961Z,54.50
2017-09-25T18:57:18.600Z,53.40
2017-09-25T18:59:46.219Z,53.20
2017-09-25T19:02:13.800Z,52.30
2017-09-25T19:04:41.421Z,53.10
2017-09-25T19:07:09.038Z,54.50
2017-09-25T19:09:36.621Z,55.20
2017-09-25T19:12:04.250Z,54.20
2017-09-25T19:14:31.827Z,53.80
2017-09-25T19:17:00.199Z,54.50
2017-09-25T19:19:27.880Z,54.40
2017-09-25T19:21:56.253Z,53.50
2017-09-25T19:24:24.650Z,54.20
2017-09-25T19:26:52.287Z,54.20
2017-09-25T19:29:19.915Z,54.00
2017-09-25T19:31:47.522Z,55.10
2017-09-25T19:34:15.876Z,55.60
2017-09-25T19:36:43.494Z,55.70
2017-09-25T19:39:11.082Z,55.70
2017-09-25T19:41:38.763Z,57.50
2017-09-25T19:44:06.358Z,55.30
2017-09-25T19:46:34.749Z,53.90
2017-09-25T19:49:12.242Z,53.90
2017-09-25T19:51:39.863Z,52.70
2017-09-25T19:54:25.278Z,53.50
2017-09-25T19:57:02.838Z,54.30
2017-09-25T19:59:30.466Z,55.70
2017-09-25T20:01:58.082Z,55.20
2017-09-25T20:04:26.434Z,55.70
2017-09-25T20:06:54.102Z,55.60
2017-09-25T20:09:21.703Z,53.90
2017-09-25T20:11:54.007Z,54.90
2017-09-25T20:14:31.507Z,54.90
2017-09-25T20:17:19.974Z,55.10
2017-09-25T20:19:47.638Z,53.70
2017-09-25T20:22:15.226Z,53.80
2017-09-25T20:24:43.602Z,53.30
2017-09-25T20:27:11.979Z,53.20
2017-09-25T20:29:40.324Z,53.10
2017-09-25T20:32:07.965Z,53.10
2017-09-25T20:34:35.547Z,53.40
2017-09-25T20:37:03.135Z,53.40
2017-09-25T20:39:30.763Z,53.10
2017-09-25T20:42:09.166Z,53.50
2017-09-25T20:44:36.814Z,54.90
2017-09-25T20:47:04.404Z,55.80
2017-09-25T20:49:31.998Z,56.70
2017-09-25T20:51:59.643Z,56.80
2017-09-25T20:54:27.228Z,57.30
2017-09-25T20:56:55.668Z,55.70
2017-09-25T20:59:23.256Z,55.60
2017-09-25T21:01:50.852Z,56.60
2017-09-25T21:04:18.486Z,57.10
2017-09-25T21:06:46.146Z,58.30
2017-09-25T21:09:13.748Z,57.50
2017-09-25T21:11:41.364Z,58.40
2017-09-25T21:14:09.023Z,57.90
2017-09-25T21:16:36.651Z,57.20
2017-09-25T21:19:04.263Z,57.20
2017-09-25T21:21:31.909Z,57.60
2017-09-25T21:23:59.515Z,58.40
2017-09-25T21:26:29.650Z,58.10
2017-09-25T21:28:57.286Z,58.70
2017-09-25T21:31:25.671Z,58.30
2017-09-25T21:33:53.295Z,58.30
2017-09-25T21:36:20.944Z,58.40
2017-09-25T21:38:48.559Z,58.50
2017-09-25T21:41:16.135Z,58.50
2017-09-25T21:43:43.755Z,59.60
2017-09-25T21:46:12.224Z,59.00
2017-09-25T21:48:39.850Z,59.70
2017-09-25T21:51:07.428Z,60.50
2017-09-25T21:53:35.085Z,60.00
2017-09-25T21:56:02.669Z,59.40
2017-09-25T21:58:30.250Z,60.20
2017-09-25T22:00:57.892Z,61.20
2017-09-25T22:03:25.473Z,59.50
2017-09-25T22:05:53.072Z,59.70
2017-09-25T22:08:20.689Z,60.30
2017-09-25T22:10:48.278Z,60.20
2017-09-25T22:13:16.657Z,60.50
2017-09-25T22:15:44.995Z,61.90
2017-09-25T22:18:12.652Z,61.10
2017-09-25T22:20:40.222Z,60.80
2017-09-25T22:23:07.811Z,61.00
2017-09-25T22:25:36.216Z,60.50
2017-09-25T22:28:03.796Z,60.50
2017-09-25T22:30:31.388Z,62.00
2017-09-25T22:32:59.035Z,61.90
2017-09-25T22:35:26.660Z,60.80
2017-09-25T22:37:54.247Z,59.50
2017-09-25T22:40:21.876Z,58.90
2017-09-25T22:42:51.994Z,58.90
2017-09-25T22:45:20.338Z,58.70
2017-09-25T22:47:47.944Z,58.70
2017-09-25T22:50:15.522Z,58.20
2017-09-25T22:52:43.133Z,58.00
2017-09-25T22:55:10.706Z,57.70
2017-09-25T22:57:39.101Z,59.40
2017-09-25T23:00:06.709Z,59.30
2017-09-25T23:02:34.337Z,61.00
2017-09-25T23:05:07.465Z,61.50
2017-09-25T23:07:35.108Z,59.80
2017-09-25T23:10:02.715Z,58.80
2017-09-25T23:12:30.306Z,58.30
2017-09-25T23:14:57.938Z,58.00
2017-09-25T23:17:25.547Z,57.90
2017-09-25T23:19:53.127Z,57.80
2017-09-25T23:22:20.763Z,58.00
2017-09-25T23:24:48.375Z,58.10
2017-09-25T23:27:15.956Z,59.10
2017-09-25T23:30:04.066Z,61.10
2017-09-25T23:32:31.654Z,61.00
2017-09-25T23:35:00.043Z,60.50
2017-09-25T23:37:28.418Z,61.80
2017-09-25T23:39:56.757Z,61.10
2017-09-25T23:42:24.372Z,61.10
2017-09-25T23:44:52.723Z,59.00
2017-09-25T23:47:20.334Z,59.00
2017-09-25T23:49:47.961Z,59.00
2017-09-25T23:52:16.299Z,58.40
2017-09-25T23:54:43.870Z,58.50
2017-09-25T23:57:11.522Z,58.40
2017-09-25T23:59:39.099Z,60.20
